createdAt,value
2023-07-14T00:00:41.623Z,14.59
2023-07-14T00:03:11.318Z,14.60
2023-07-14T00:05:40.397Z,14.59
2023-07-14T00:08:17.463Z,14.64
2023-07-14T00:10:43.971Z,14.63
2023-07-14T00:13:10.383Z,14.70
2023-07-14T00:15:39.297Z,14.65
2023-07-14T00:18:17.395Z,14.68
2023-07-14T00:20:44.016Z,14.72
2023-07-14T00:23:12.951Z,14.79
2023-07-14T00:25:40.157Z,14.79
2023-07-14T00:28:15.613Z,14.85
2023-07-14T00:30:42.069Z,14.79
2023-07-14T00:33:17.766Z,14.85
2023-07-14T00:35:44.880Z,14.84
2023-07-14T00:38:11.397Z,14.80
2023-07-14T00:40:48.865Z,14.82
2023-07-14T00:43:20.425Z,14.80
2023-07-14T00:45:49.122Z,14.75
2023-07-14T00:48:19.255Z,14.75
2023-07-14T00:50:53.800Z,14.74
2023-07-14T00:53:24.554Z,14.81
2023-07-14T00:56:04.248Z,14.83
2023-07-14T00:58:31.643Z,14.88
2023-07-14T01:01:13.954Z,14.87
2023-07-14T01:03:42.922Z,14.94
2023-07-14T01:06:37.548Z,14.88
2023-07-14T01:09:07.119Z,14.91
2023-07-14T01:11:38.842Z,14.85
2023-07-14T01:14:11.298Z,14.91
2023-07-14T01:16:39.716Z,15.19
2023-07-14T01:19:14.090Z,15.08
2023-07-14T01:21:41.971Z,15.05
2023-07-14T01:24:17.182Z,15.05
2023-07-14T01:26:54.253Z,14.97
2023-07-14T01:29:21.267Z,14.94
2023-07-14T01:31:48.919Z,14.89
2023-07-14T01:34:16.880Z,15.10
2023-07-14T01:36:45.084Z,15.12
2023-07-14T01:39:12.745Z,15.27
2023-07-14T01:41:39.649Z,15.19
2023-07-14T01:44:06.862Z,15.21
2023-07-14T01:46:33.366Z,15.20
2023-07-14T01:48:59.831Z,15.20
2023-07-14T01:51:34.542Z,15.13
2023-07-14T01:54:28.110Z,15.23
2023-07-14T01:56:58.951Z,15.24
2023-07-14T01:59:29.769Z,15.28
2023-07-14T02:02:00.734Z,15.29
2023-07-14T02:04:33.872Z,15.51
2023-07-14T02:07:04.714Z,15.60
2023-07-14T02:09:34.051Z,15.77
2023-07-14T02:12:05.445Z,15.79
2023-07-14T02:14:46.651Z,15.68
2023-07-14T02:17:31.755Z,15.72
2023-07-14T02:19:59.671Z,15.92
2023-07-14T02:22:26.831Z,15.90
2023-07-14T02:24:55.315Z,15.95
2023-07-14T02:27:21.821Z,15.91
2023-07-14T02:29:48.268Z,15.96
2023-07-14T02:32:30.889Z,15.81
2023-07-14T02:35:03.241Z,15.70
2023-07-14T02:38:04.203Z,15.78
2023-07-14T02:40:52.058Z,15.61
2023-07-14T02:43:20.310Z,15.48
2023-07-14T02:45:52.833Z,15.54
2023-07-14T02:48:25.894Z,15.43
2023-07-14T02:50:52.271Z,15.39
2023-07-14T02:53:18.913Z,15.26
2023-07-14T02:55:45.531Z,15.18
2023-07-14T02:58:12.105Z,15.11
2023-07-14T03:00:38.641Z,14.96
2023-07-14T03:03:05.218Z,14.91
2023-07-14T03:05:31.791Z,14.93
2023-07-14T03:07:58.300Z,14.90
2023-07-14T03:10:24.936Z,14.89
2023-07-14T03:12:51.481Z,14.87
2023-07-14T03:15:18.042Z,14.86
2023-07-14T03:17:44.581Z,14.82
2023-07-14T03:20:11.672Z,14.72
2023-07-14T03:22:40.126Z,14.69
2023-07-14T03:25:09.323Z,14.75
2023-07-14T03:27:35.814Z,14.69
2023-07-14T03:30:02.348Z,14.65
2023-07-14T03:32:28.816Z,14.64
2023-07-14T03:34:55.273Z,14.58
2023-07-14T03:37:21.705Z,14.63
2023-07-14T03:39:48.152Z,14.64
2023-07-14T03:42:15.234Z,14.68
2023-07-14T03:44:41.717Z,14.67
2023-07-14T03:47:08.219Z,14.64
2023-07-14T03:49:35.776Z,14.62
2023-07-14T03:52:04.098Z,14.57
2023-07-14T03:54:31.314Z,14.56
2023-07-14T03:56:59.677Z,14.64
2023-07-14T03:59:29.253Z,14.61
2023-07-14T04:01:55.792Z,14.63
2023-07-14T04:04:23.549Z,14.61
2023-07-14T04:06:50.813Z,14.61
2023-07-14T04:09:17.316Z,14.63
2023-07-14T04:11:44.333Z,14.62
2023-07-14T04:14:11.270Z,14.64
2023-07-14T04:16:38.073Z,14.67
2023-07-14T04:19:05.070Z,14.88
2023-07-14T04:21:32.150Z,15.00
2023-07-14T04:23:59.344Z,15.22
2023-07-14T04:26:27.843Z,15.29
2023-07-14T04:28:54.557Z,15.20
2023-07-14T04:31:21.319Z,15.13
2023-07-14T04:33:50.345Z,15.17
2023-07-14T04:36:17.335Z,15.18
2023-07-14T04:39:02.456Z,15.22
2023-07-14T04:41:28.885Z,15.29
2023-07-14T04:43:55.347Z,15.17
2023-07-14T04:46:21.806Z,15.16
2023-07-14T04:48:49.451Z,15.23
2023-07-14T04:51:15.873Z,15.26
2023-07-14T04:53:42.319Z,15.30
2023-07-14T04:56:08.710Z,15.50
2023-07-14T04:58:35.136Z,15.61
2023-07-14T05:01:02.669Z,15.68
2023-07-14T05:03:30.454Z,15.78
2023-07-14T05:05:57.070Z,15.89
2023-07-14T05:08:23.536Z,15.93
2023-07-14T05:10:50.282Z,16.00
2023-07-14T05:13:17.080Z,16.02
2023-07-14T05:15:47.911Z,16.04
2023-07-14T05:18:16.182Z,16.06
2023-07-14T05:20:44.938Z,16.10
2023-07-14T05:23:12.364Z,16.14
2023-07-14T05:25:39.390Z,16.22
2023-07-14T05:28:06.673Z,16.28
2023-07-14T05:30:34.168Z,16.25
2023-07-14T05:33:01.237Z,16.28
2023-07-14T05:35:28.144Z,16.30
2023-07-14T05:37:55.042Z,16.24
2023-07-14T05:40:21.556Z,16.34
2023-07-14T05:42:48.231Z,16.33
2023-07-14T05:45:15.046Z,16.28
2023-07-14T05:47:46.789Z,16.31
2023-07-14T05:50:15.985Z,16.36
2023-07-14T05:52:42.759Z,16.38
2023-07-14T05:55:10.132Z,16.42
2023-07-14T05:57:39.183Z,16.50
2023-07-14T06:00:14.085Z,16.51
2023-07-14T06:02:42.292Z,16.63
2023-07-14T06:05:09.765Z,16.77
2023-07-14T06:07:38.102Z,16.94
2023-07-14T06:10:06.048Z,17.02
2023-07-14T06:12:33.411Z,17.11
2023-07-14T06:15:00.198Z,17.18
2023-07-14T06:17:26.829Z,17.23
2023-07-14T06:19:53.339Z,17.37
2023-07-14T06:22:21.609Z,17.45
2023-07-14T06:24:51.560Z,17.51
2023-07-14T06:27:18.299Z,17.65
2023-07-14T06:29:45.086Z,17.76
2023-07-14T06:32:11.500Z,17.95
2023-07-14T06:34:37.951Z,18.03
2023-07-14T06:37:04.874Z,18.09
2023-07-14T06:39:32.066Z,18.17
2023-07-14T06:41:58.526Z,18.23
2023-07-14T06:44:26.590Z,18.25
2023-07-14T06:46:54.299Z,18.33
2023-07-14T06:49:23.034Z,18.53
2023-07-14T06:51:51.528Z,18.48
2023-07-14T06:54:18.201Z,18.56
2023-07-14T06:56:44.728Z,18.64
2023-07-14T06:59:11.367Z,18.82
2023-07-14T07:01:38.168Z,19.06
2023-07-14T07:04:05.381Z,19.03
2023-07-14T07:06:31.946Z,19.15
2023-07-14T07:08:58.381Z,19.30
2023-07-14T07:11:24.799Z,19.48
2023-07-14T07:13:51.299Z,19.37
2023-07-14T07:16:17.915Z,19.52
2023-07-14T07:18:44.681Z,19.48
2023-07-14T07:21:13.953Z,19.76
2023-07-14T07:23:40.646Z,19.76
2023-07-14T07:26:08.079Z,20.04
2023-07-14T07:28:34.569Z,19.95
2023-07-14T07:31:10.101Z,19.95
2023-07-14T07:33:38.207Z,19.99
2023-07-14T07:36:16.256Z,20.14
2023-07-14T07:38:51.672Z,20.28
2023-07-14T07:41:21.714Z,20.36
2023-07-14T07:43:48.305Z,20.69
2023-07-14T07:46:15.727Z,20.82
2023-07-14T07:48:45.207Z,20.86
2023-07-14T07:51:12.423Z,20.92
2023-07-14T07:53:38.908Z,20.94
2023-07-14T07:56:05.469Z,21.36
2023-07-14T07:58:32.025Z,21.46
2023-07-14T08:01:04.691Z,21.43
2023-07-14T08:03:32.459Z,21.47
2023-07-14T08:06:00.948Z,21.68
2023-07-14T08:08:27.672Z,21.59
2023-07-14T08:10:54.747Z,21.76
2023-07-14T08:13:21.569Z,22.18
2023-07-14T08:15:50.161Z,22.16
2023-07-14T08:18:18.154Z,22.28
2023-07-14T08:20:44.651Z,22.17
2023-07-14T08:23:15.069Z,21.93
2023-07-14T08:25:41.918Z,21.78
2023-07-14T08:28:08.862Z,21.84
2023-07-14T08:30:35.807Z,22.44
2023-07-14T08:33:02.419Z,22.78
2023-07-14T08:35:28.866Z,23.03
2023-07-14T08:37:55.533Z,22.88
2023-07-14T08:40:31.038Z,23.15
2023-07-14T08:43:42.291Z,23.12
2023-07-14T08:46:38.372Z,22.93
2023-07-14T08:49:27.598Z,22.68
2023-07-14T08:52:10.175Z,22.66
2023-07-14T08:54:47.487Z,22.88
2023-07-14T08:57:25.959Z,23.18
2023-07-14T08:59:56.788Z,23.10
2023-07-14T09:02:40.635Z,23.26
2023-07-14T09:05:17.921Z,23.33
2023-07-14T09:07:44.366Z,23.65
2023-07-14T09:10:13.177Z,23.56
2023-07-14T09:13:09.332Z,23.62
2023-07-14T09:15:35.864Z,24.11
2023-07-14T09:18:15.513Z,23.92
2023-07-14T09:21:07.727Z,23.92
2023-07-14T09:24:13.096Z,23.81
2023-07-14T09:26:46.854Z,23.89
2023-07-14T09:29:20.579Z,23.80
2023-07-14T09:31:57.713Z,23.97
2023-07-14T09:34:38.640Z,23.88
2023-07-14T09:37:37.696Z,24.21
2023-07-14T09:40:22.383Z,24.12
2023-07-14T09:42:57.555Z,24.19
2023-07-14T09:45:35.390Z,24.16
2023-07-14T09:48:15.161Z,24.38
2023-07-14T09:50:52.757Z,24.86
2023-07-14T09:53:19.343Z,24.91
2023-07-14T09:55:53.793Z,25.04
2023-07-14T09:58:28.386Z,24.56
2023-07-14T10:00:56.636Z,24.78
2023-07-14T10:03:43.680Z,24.72
2023-07-14T10:06:21.455Z,24.66
2023-07-14T10:08:59.334Z,24.89
2023-07-14T10:11:29.709Z,25.26
2023-07-14T10:14:02.057Z,25.08
2023-07-14T10:16:33.170Z,25.31
2023-07-14T10:19:05.848Z,25.70
2023-07-14T10:21:34.667Z,25.76
2023-07-14T10:24:06.466Z,25.90
2023-07-14T10:26:41.585Z,26.25
2023-07-14T10:29:16.725Z,26.23
2023-07-14T10:31:46.623Z,26.30
2023-07-14T10:34:29.370Z,26.18
2023-07-14T10:37:00.492Z,26.57
2023-07-14T10:39:43.509Z,26.30
2023-07-14T10:42:15.951Z,25.66
2023-07-14T10:44:46.743Z,25.62
2023-07-14T10:47:21.246Z,25.82
2023-07-14T10:50:13.494Z,25.85
2023-07-14T10:52:44.901Z,25.72
2023-07-14T10:55:29.374Z,26.09
2023-07-14T10:58:20.552Z,25.72
2023-07-14T11:00:52.600Z,25.72
2023-07-14T11:03:31.018Z,25.75
2023-07-14T11:06:21.529Z,25.52
2023-07-14T11:08:57.676Z,25.31
2023-07-14T11:11:49.748Z,25.53
2023-07-14T11:14:36.626Z,25.89
2023-07-14T11:17:03.660Z,26.12
2023-07-14T11:19:47.018Z,26.16
2023-07-14T11:22:35.760Z,25.96
2023-07-14T11:25:07.623Z,26.36
2023-07-14T11:27:47.064Z,27.13
2023-07-14T11:30:18.920Z,27.88
2023-07-14T11:32:53.383Z,27.56
2023-07-14T11:35:35.208Z,27.73
2023-07-14T11:38:16.877Z,27.69
2023-07-14T11:40:46.973Z,27.39
2023-07-14T11:43:19.135Z,27.53
2023-07-14T11:45:47.192Z,28.20
2023-07-14T11:48:33.022Z,28.33
2023-07-14T11:51:08.772Z,27.64
2023-07-14T11:53:36.334Z,27.77
2023-07-14T11:56:20.085Z,28.32
2023-07-14T11:58:46.574Z,28.23
2023-07-14T12:01:30.143Z,28.01
2023-07-14T12:04:21.099Z,28.44
2023-07-14T12:06:49.952Z,28.01
2023-07-14T12:09:19.458Z,28.04
2023-07-14T12:11:51.660Z,28.62
2023-07-14T12:14:36.144Z,28.59
2023-07-14T12:17:04.038Z,28.04
2023-07-14T12:19:50.400Z,27.46
2023-07-14T12:22:38.317Z,27.72
2023-07-14T12:25:14.757Z,27.56
2023-07-14T12:27:53.187Z,27.78
2023-07-14T12:30:30.602Z,27.95
2023-07-14T12:33:03.136Z,27.76
2023-07-14T12:35:31.808Z,27.32
2023-07-14T12:38:08.801Z,27.50
2023-07-14T12:40:35.500Z,27.32
2023-07-14T12:43:05.994Z,27.59
2023-07-14T12:45:33.164Z,28.09
2023-07-14T12:48:02.811Z,28.29
2023-07-14T12:50:30.423Z,27.73
2023-07-14T12:52:57.417Z,27.67
2023-07-14T12:55:25.803Z,27.62
2023-07-14T12:57:52.952Z,27.32
2023-07-14T13:00:31.690Z,27.32
2023-07-14T13:02:59.344Z,27.30
2023-07-14T13:05:36.689Z,27.39
2023-07-14T13:08:07.507Z,27.47
2023-07-14T13:10:45.037Z,27.51
2023-07-14T13:13:26.392Z,27.75
2023-07-14T13:15:55.295Z,28.03
2023-07-14T13:18:34.301Z,27.97
2023-07-14T13:21:05.131Z,28.35
2023-07-14T13:23:34.358Z,28.10
2023-07-14T13:26:06.845Z,27.53
2023-07-14T13:28:39.962Z,27.52
2023-07-14T13:31:15.573Z,27.01
2023-07-14T13:33:42.498Z,27.35
2023-07-14T13:36:15.890Z,27.84
2023-07-14T13:38:43.828Z,28.37
2023-07-14T13:41:18.433Z,28.31
2023-07-14T13:43:49.815Z,27.85
2023-07-14T13:46:26.232Z,27.40
2023-07-14T13:48:54.919Z,27.57
2023-07-14T13:51:26.068Z,27.79
2023-07-14T13:53:53.173Z,27.91
2023-07-14T13:56:25.189Z,28.02
2023-07-14T13:58:52.794Z,27.90
2023-07-14T14:01:22.785Z,27.93
2023-07-14T14:03:55.371Z,27.59
2023-07-14T14:06:23.750Z,27.59
2023-07-14T14:08:50.294Z,27.88
2023-07-14T14:11:16.675Z,28.05
2023-07-14T14:13:43.106Z,28.30
2023-07-14T14:16:16.751Z,28.32
2023-07-14T14:18:44.193Z,28.22
2023-07-14T14:21:14.396Z,28.47
2023-07-14T14:23:41.019Z,28.40
2023-07-14T14:26:12.191Z,28.37
2023-07-14T14:28:38.802Z,28.34
2023-07-14T14:31:11.277Z,28.37
2023-07-14T14:33:37.941Z,28.20
2023-07-14T14:36:04.502Z,28.53
2023-07-14T14:38:45.195Z,28.18
2023-07-14T14:41:29.154Z,28.21
2023-07-14T14:43:56.329Z,28.03
2023-07-14T14:46:24.085Z,28.07
2023-07-14T14:48:51.176Z,28.14
2023-07-14T14:51:17.669Z,28.03
2023-07-14T14:53:44.159Z,28.05
2023-07-14T14:56:16.847Z,28.15
2023-07-14T14:58:43.962Z,28.11
2023-07-14T15:01:31.256Z,28.11
2023-07-14T15:03:59.344Z,27.91
2023-07-14T15:06:26.009Z,27.73
2023-07-14T15:08:52.718Z,27.53
2023-07-14T15:11:20.225Z,27.41
2023-07-14T15:13:47.270Z,27.43
2023-07-14T15:16:17.312Z,27.45
2023-07-14T15:18:44.288Z,27.48
2023-07-14T15:21:17.668Z,27.57
2023-07-14T15:23:44.255Z,27.45
2023-07-14T15:26:23.354Z,27.58
2023-07-14T15:28:50.997Z,27.66
2023-07-14T15:31:18.802Z,27.66
2023-07-14T15:33:46.110Z,27.69
2023-07-14T15:36:14.386Z,27.41
2023-07-14T15:38:41.337Z,27.39
2023-07-14T15:41:17.815Z,27.14
2023-07-14T15:43:48.615Z,27.13
2023-07-14T15:46:16.032Z,27.23
2023-07-14T15:48:43.957Z,27.28
2023-07-14T15:51:29.189Z,27.40
2023-07-14T15:53:58.508Z,27.36
2023-07-14T15:56:25.853Z,27.39
2023-07-14T15:58:52.629Z,27.32
2023-07-14T16:01:29.226Z,27.14
2023-07-14T16:03:57.506Z,26.95
2023-07-14T16:06:25.357Z,26.89
2023-07-14T16:08:55.293Z,27.04
2023-07-14T16:11:36.221Z,27.01
2023-07-14T16:14:05.633Z,26.95
2023-07-14T16:16:32.432Z,26.98
2023-07-14T16:18:58.954Z,27.02
2023-07-14T16:21:29.437Z,27.00
2023-07-14T16:23:57.590Z,26.87
2023-07-14T16:26:25.350Z,26.87
2023-07-14T16:28:52.515Z,26.96
2023-07-14T16:31:20.186Z,27.06
2023-07-14T16:33:46.965Z,27.12
2023-07-14T16:36:32.099Z,26.92
2023-07-14T16:39:05.526Z,26.94
2023-07-14T16:41:32.763Z,26.98
2023-07-14T16:43:59.363Z,26.83
2023-07-14T16:46:34.178Z,26.86
2023-07-14T16:49:01.044Z,26.89
2023-07-14T16:51:28.555Z,26.92
2023-07-14T16:53:59.803Z,26.78
2023-07-14T16:56:26.275Z,26.75
2023-07-14T16:58:52.759Z,26.81
2023-07-14T17:01:21.498Z,26.69
2023-07-14T17:03:48.904Z,26.76
2023-07-14T17:06:16.502Z,26.78
2023-07-14T17:08:44.597Z,26.72
2023-07-14T17:11:11.573Z,26.78
2023-07-14T17:13:41.395Z,26.82
2023-07-14T17:16:08.047Z,26.77
2023-07-14T17:18:37.278Z,26.82
2023-07-14T17:21:05.611Z,26.76
2023-07-14T17:23:38.520Z,26.76
2023-07-14T17:26:08.077Z,26.76
2023-07-14T17:28:34.754Z,26.75
2023-07-14T17:31:02.197Z,26.72
2023-07-14T17:33:29.939Z,26.72
2023-07-14T17:36:00.207Z,26.74
2023-07-14T17:38:29.993Z,26.73
2023-07-14T17:40:56.703Z,26.74
2023-07-14T17:43:23.523Z,26.71
2023-07-14T17:45:51.689Z,26.64
2023-07-14T17:48:19.030Z,26.56
2023-07-14T17:50:47.749Z,26.44
2023-07-14T17:53:24.491Z,26.35
2023-07-14T17:55:52.606Z,26.30
2023-07-14T17:58:21.780Z,26.26
2023-07-14T18:00:49.936Z,26.18
2023-07-14T18:03:20.933Z,26.15
2023-07-14T18:05:48.594Z,26.06
2023-07-14T18:08:20.450Z,26.11
2023-07-14T18:10:50.388Z,26.03
2023-07-14T18:13:25.951Z,26.01
2023-07-14T18:15:52.780Z,25.99
2023-07-14T18:18:25.095Z,26.04
2023-07-14T18:20:56.780Z,25.96
2023-07-14T18:23:27.161Z,25.92
2023-07-14T18:25:54.024Z,25.81
2023-07-14T18:28:23.188Z,25.80
2023-07-14T18:30:50.861Z,25.76
2023-07-14T18:33:20.298Z,25.66
2023-07-14T18:35:48.600Z,25.63
2023-07-14T18:38:18.573Z,25.55
2023-07-14T18:40:47.795Z,25.39
2023-07-14T18:43:31.806Z,25.33
2023-07-14T18:45:58.352Z,25.30
2023-07-14T18:48:27.114Z,25.18
2023-07-14T18:50:59.314Z,25.13
2023-07-14T18:53:27.802Z,25.08
2023-07-14T18:55:54.470Z,25.01
2023-07-14T18:58:24.080Z,24.94
2023-07-14T19:00:54.979Z,24.89
2023-07-14T19:03:34.111Z,24.80
2023-07-14T19:06:01.861Z,24.72
2023-07-14T19:08:29.165Z,24.76
2023-07-14T19:10:59.177Z,24.73
2023-07-14T19:13:26.789Z,24.60
2023-07-14T19:15:53.340Z,24.50
2023-07-14T19:18:25.825Z,24.38
2023-07-14T19:20:58.892Z,24.28
2023-07-14T19:23:27.340Z,23.95
2023-07-14T19:25:55.442Z,23.78
2023-07-14T19:28:24.109Z,23.56
2023-07-14T19:30:51.437Z,23.40
2023-07-14T19:33:24.519Z,23.19
2023-07-14T19:36:00.050Z,23.12
2023-07-14T19:38:27.928Z,23.00
2023-07-14T19:40:56.026Z,22.86
2023-07-14T19:43:25.720Z,22.79
2023-07-14T19:45:52.985Z,22.62
2023-07-14T19:48:22.366Z,22.44
2023-07-14T19:50:52.227Z,22.35
2023-07-14T19:53:18.792Z,22.26
2023-07-14T19:55:45.355Z,22.16
2023-07-14T19:58:14.322Z,22.02
2023-07-14T20:00:42.938Z,21.90
2023-07-14T20:03:17.473Z,21.86
2023-07-14T20:05:47.642Z,21.86
2023-07-14T20:08:17.628Z,21.65
2023-07-14T20:10:45.255Z,21.64
2023-07-14T20:13:20.523Z,21.56
2023-07-14T20:15:48.322Z,21.64
2023-07-14T20:18:17.350Z,21.56
2023-07-14T20:20:44.170Z,21.59
2023-07-14T20:23:18.458Z,21.61
2023-07-14T20:25:45.385Z,21.57
2023-07-14T20:28:33.175Z,21.81
2023-07-14T20:31:10.052Z,21.92
2023-07-14T20:33:36.697Z,22.16
2023-07-14T20:36:03.265Z,22.36
2023-07-14T20:38:29.999Z,22.65
2023-07-14T20:40:58.973Z,22.70
2023-07-14T20:43:32.465Z,22.78
2023-07-14T20:46:00.016Z,22.83
2023-07-14T20:48:27.650Z,22.81
2023-07-14T20:50:56.164Z,22.85
2023-07-14T20:53:25.921Z,22.88
2023-07-14T20:55:56.208Z,22.95
2023-07-14T20:58:25.494Z,22.86
2023-07-14T21:00:53.380Z,22.87
2023-07-14T21:03:22.614Z,22.95
2023-07-14T21:05:51.916Z,22.99
2023-07-14T21:08:33.866Z,23.03
2023-07-14T21:11:12.116Z,23.11
2023-07-14T21:13:43.565Z,23.13
2023-07-14T21:16:12.757Z,23.20
2023-07-14T21:18:40.598Z,23.23
2023-07-14T21:21:16.741Z,23.24
2023-07-14T21:23:43.235Z,23.22
2023-07-14T21:26:18.248Z,23.23
2023-07-14T21:28:44.674Z,23.29
2023-07-14T21:31:13.057Z,23.24
2023-07-14T21:33:42.202Z,23.21
2023-07-14T21:36:17.757Z,23.26
2023-07-14T21:38:45.106Z,23.26
2023-07-14T21:41:12.504Z,23.29
2023-07-14T21:43:42.569Z,23.30
2023-07-14T21:46:20.650Z,23.41
2023-07-14T21:48:48.204Z,23.37
2023-07-14T21:51:20.944Z,23.37
2023-07-14T21:53:49.962Z,23.29
2023-07-14T21:56:16.974Z,23.35
2023-07-14T21:58:44.096Z,23.44
2023-07-14T22:01:19.765Z,23.38
2023-07-14T22:03:46.220Z,23.35
2023-07-14T22:06:15.063Z,23.33
2023-07-14T22:08:42.386Z,23.46
2023-07-14T22:11:09.906Z,23.42
2023-07-14T22:13:36.650Z,23.34
2023-07-14T22:16:06.012Z,23.35
2023-07-14T22:18:45.193Z,23.31
2023-07-14T22:21:19.418Z,23.34
2023-07-14T22:23:46.282Z,23.42
2023-07-14T22:26:16.082Z,23.35
2023-07-14T22:28:43.070Z,23.38
2023-07-14T22:31:29.604Z,23.34
2023-07-14T22:33:59.827Z,23.40
2023-07-14T22:36:27.494Z,23.35
2023-07-14T22:38:56.627Z,23.34
2023-07-14T22:41:35.037Z,23.36
2023-07-14T22:44:06.546Z,23.39
2023-07-14T22:46:33.201Z,23.34
2023-07-14T22:48:59.999Z,23.35
2023-07-14T22:51:33.080Z,23.35
2023-07-14T22:54:02.541Z,23.40
2023-07-14T22:56:29.035Z,23.38
2023-07-14T22:58:56.565Z,23.41
2023-07-14T23:01:30.413Z,23.43
2023-07-14T23:03:57.360Z,23.45
2023-07-14T23:06:24.994Z,23.51
2023-07-14T23:08:55.379Z,23.48
2023-07-14T23:11:29.654Z,23.46
2023-07-14T23:13:56.356Z,23.47
2023-07-14T23:16:24.636Z,23.38
2023-07-14T23:18:51.351Z,23.34
2023-07-14T23:21:21.560Z,23.28
2023-07-14T23:23:52.814Z,23.28
2023-07-14T23:26:21.525Z,23.37
2023-07-14T23:28:50.214Z,23.34
2023-07-14T23:31:20.063Z,23.29
2023-07-14T23:33:47.523Z,23.38
2023-07-14T23:36:17.406Z,23.38
2023-07-14T23:38:45.223Z,23.32
2023-07-14T23:41:14.904Z,23.37
2023-07-14T23:43:41.740Z,23.33
2023-07-14T23:46:08.843Z,23.31
2023-07-14T23:48:39.655Z,23.34
2023-07-14T23:51:13.947Z,23.33
2023-07-14T23:53:42.444Z,23.28
2023-07-14T23:56:09.005Z,23.27
2023-07-14T23:58:35.600Z,23.28
